Vn Rebel _ — ILBR — position and weather

sailwx.info

Track history (hours):
 
Tides and Currents Weather Stations Pressure Air Temp Water Temp Dewpoint Dewpoint Depression Visibility Wind Speed Wind Dir Waves Ship Positions

Vn Rebel _

Last reported at 2015-Aug-20 19:24 UTC. Time now 2015-Aug-29 18:56 UTC.
Position N 43°07' E 005°55'.
Warning: this ship's position is 8 days out of date.

Length 45 m; draft 2.4 m.

MMSI: 247010300.

Date/timePositionNaut miles runAvg speedWind from/ knotsBaromVisibWave heightAir tempDewpointWater temp
2015-Aug-20 19:24N 43°07' E 005°55'0 0.0
2015-Aug-20 18:33N 43°07' E 005°55'0 0.0
2015-Aug-20 17:33N 43°07' E 005°55'0 0.0
2015-Aug-20 16:33N 43°07' E 005°55'0 0.0
2015-Aug-20 15:33N 43°07' E 005°55'0 0.0
2015-Aug-20 14:33N 43°07' E 005°55'3 2.6
2015-Aug-20 13:33N 43°05' E 005°58'12 8.8
2015-Aug-20 12:10N 42°54' E 006°05'6 0.6
2015-Aug-20 01:16N 42°59' E 006°00'6 8.0
2015-Aug-20 00:33N 43°05' E 005°58'3 3.1
2015-Aug-19 23:33N 43°07' E 005°55'0 0.0
2015-Aug-19 12:33N 43°07' E 005°55'0 0.4
2015-Aug-19 11:33N 43°07' E 005°55'0 0.0
2015-Aug-17 09:33N 43°07' E 005°55'0 0.2
2015-Aug-17 08:33N 43°07' E 005°55'  
Track history (hours):
 
Tides and Currents Weather Stations Pressure Air Temp Water Temp Dewpoint Dewpoint Depression Visibility Wind Speed Wind Dir Waves Ship Positions

Vn Rebel _

Last reported at 2015-Aug-20 19:24 UTC. Time now 2015-Aug-29 18:56 UTC.
Position N 43°07' E 005°55'.
Warning: this ship's position is 8 days out of date.

Length 45 m; draft 2.4 m.

MMSI: 247010300.

Date/timePositionNaut miles runAvg speedWind from/ knotsBaromVisibWave heightAir tempDewpointWater temp
2015-Aug-20 19:24N 43°07' E 005°55'0 0.0
2015-Aug-20 18:33N 43°07' E 005°55'0 0.0
2015-Aug-20 17:33N 43°07' E 005°55'0 0.0
2015-Aug-20 16:33N 43°07' E 005°55'0 0.0
2015-Aug-20 15:33N 43°07' E 005°55'0 0.0
2015-Aug-20 14:33N 43°07' E 005°55'3 2.6
2015-Aug-20 13:33N 43°05' E 005°58'12 8.8
2015-Aug-20 12:10N 42°54' E 006°05'6 0.6
2015-Aug-20 01:16N 42°59' E 006°00'6 8.0
2015-Aug-20 00:33N 43°05' E 005°58'3 3.1
2015-Aug-19 23:33N 43°07' E 005°55'0 0.0
2015-Aug-19 12:33N 43°07' E 005°55'0 0.4
2015-Aug-19 11:33N 43°07' E 005°55'0 0.0
2015-Aug-17 09:33N 43°07' E 005°55'0 0.2
2015-Aug-17 08:33N 43°07' E 005°55'  

Dump ship's entire track history